Terminal Aerodrome Forecast
Issued by NWS Knoxville/Tri Cities, TN

Home | Current Version | Previous Version | Text Only | Print | Product List | Glossary On
Versions: 1 2 3 4 5 6 7 8 9 10 11 12 13 14 15 16 17 18 19 20 21 22 23 24 25 26 27 28 29 30 31 32 33 34
000
FTUS44 KMRX 221140
TAFTRI
TAF
KTRI 221140Z 2212/2312 09003KT 6SM -RA BR OVC050
     FM221300 VRB03KT 4SM -RA BR OVC035
     FM221500 00000KT 5SM -RA BR OVC015
     FM221800 VRB03KT 4SM -DZ BR OVC025
     FM230000 00000KT P6SM OVC035
     FM230600 00000KT P6SM OVC050=

USA.gov is the U.S. government's official web portal to all federal, state and local government web resources and services.